createdAt,value
2019-01-21T00:01:26.419Z,29.17
2019-01-21T00:06:29.055Z,16.63
2019-01-21T00:11:31.738Z,31.73
2019-01-21T00:16:34.438Z,34.30
2019-01-21T00:21:37.038Z,21.93
2019-01-21T00:26:39.638Z,16.77
2019-01-21T00:31:42.199Z,13.17
2019-01-21T00:36:44.779Z,4.43
2019-01-21T00:41:48.498Z,22.57
2019-01-21T00:46:51.157Z,15.80
2019-01-21T00:51:53.924Z,4.97
2019-01-21T00:56:56.561Z,4.30
2019-01-21T01:01:59.036Z,6.13
2019-01-21T01:07:01.676Z,9.40
2019-01-21T01:12:04.578Z,4.07
2019-01-21T01:17:07.149Z,5.50
2019-01-21T01:22:09.577Z,8.17
2019-01-21T01:27:11.946Z,9.60
2019-01-21T01:32:14.447Z,8.50
2019-01-21T01:37:16.898Z,7.23
2019-01-21T01:42:20.406Z,8.50
2019-01-21T01:47:22.982Z,5.90
2019-01-21T01:52:25.588Z,24.27
2019-01-21T01:57:28.138Z,2.63
2019-01-21T02:02:30.678Z,2.03
2019-01-21T02:07:33.269Z,2.17
2019-01-21T02:12:45.449Z,2.13
2019-01-21T02:17:51.996Z,2.03
2019-01-21T02:22:57.499Z,1.80
2019-01-21T02:28:18.184Z,1.80
2019-01-21T02:33:44.301Z,2.53
2019-01-21T02:38:59.414Z,2.40
2019-01-21T02:44:20.337Z,2.93
2019-01-21T02:49:52.527Z,2.70
2019-01-21T02:55:19.089Z,2.57
2019-01-21T03:00:34.028Z,2.97
2019-01-21T03:05:50.196Z,3.13
2019-01-21T03:11:05.436Z,3.37
2019-01-21T03:16:24.691Z,3.90
2019-01-21T03:21:49.168Z,3.03
2019-01-21T03:26:56.621Z,3.83
2019-01-21T03:32:17.938Z,4.27
2019-01-21T03:37:49.247Z,4.40
2019-01-21T03:42:58.667Z,4.30
2019-01-21T03:53:51.200Z,4.20
2019-01-21T03:59:13.152Z,5.27
2019-01-21T04:04:44.183Z,5.10
2019-01-21T04:09:59.009Z,4.20
2019-01-21T04:15:16.092Z,4.53
2019-01-21T04:20:33.204Z,4.27
2019-01-21T04:25:49.178Z,3.67
2019-01-21T04:31:10.188Z,3.27
2019-01-21T04:36:51.513Z,3.20
2019-01-21T04:42:07.129Z,2.80
2019-01-21T04:47:25.294Z,2.43
2019-01-21T04:52:43.244Z,2.87
2019-01-21T04:58:11.343Z,2.33
2019-01-21T05:03:35.083Z,1.80
2019-01-21T05:08:54.254Z,1.80
2019-01-21T05:14:11.137Z,1.87
2019-01-21T05:19:32.258Z,1.40
2019-01-21T05:24:49.229Z,1.13
2019-01-21T05:30:12.432Z,1.20
2019-01-21T05:35:41.563Z,1.20
2019-01-21T05:40:57.080Z,0.57
2019-01-21T05:46:26.395Z,0.50
2019-01-21T05:51:52.104Z,0.70
2019-01-21T05:57:13.263Z,0.40
2019-01-21T06:02:39.478Z,0.40
2019-01-21T06:08:00.269Z,0.20
2019-01-21T06:13:16.467Z,0.30
2019-01-21T06:18:34.194Z,0.40
2019-01-21T06:23:48.533Z,0.67
2019-01-21T06:29:06.137Z,0.50
2019-01-21T06:34:37.123Z,0.50
2019-01-21T06:40:05.263Z,0.40
2019-01-21T06:45:25.214Z,0.43
2019-01-21T06:50:47.302Z,0.20
2019-01-21T06:56:12.288Z,0.40
2019-01-21T07:01:34.218Z,0.60
2019-01-21T07:06:53.049Z,0.70
2019-01-21T07:12:05.808Z,0.50
2019-01-21T07:34:04.140Z,0.30
2019-01-21T07:39:35.158Z,0.40
2019-01-21T07:44:54.757Z,0.43
2019-01-21T07:50:11.289Z,0.27
2019-01-21T07:55:27.660Z,0.30
2019-01-21T08:00:42.526Z,0.40
2019-01-21T08:05:57.546Z,0.60
2019-01-21T08:11:15.672Z,0.60
2019-01-21T08:16:32.747Z,0.33
2019-01-21T08:22:00.099Z,0.57
2019-01-21T08:27:18.580Z,0.60
2019-01-21T08:32:33.306Z,0.50
2019-01-21T08:37:58.286Z,0.40
2019-01-21T08:43:22.655Z,0.30
2019-01-21T08:48:43.101Z,0.50
2019-01-21T08:54:04.196Z,0.40
2019-01-21T08:59:13.855Z,0.50
2019-01-21T09:04:36.426Z,0.63
2019-01-21T09:09:59.454Z,1.57
2019-01-21T09:15:14.798Z,0.97
2019-01-21T09:20:34.694Z,1.30
2019-01-21T09:25:53.445Z,0.90
2019-01-21T09:31:14.147Z,0.97
2019-01-21T09:36:40.896Z,1.47
2019-01-21T09:41:52.521Z,1.67
2019-01-21T09:46:53.946Z,1.27
2019-01-21T09:52:09.238Z,1.80
2019-01-21T09:57:22.202Z,1.40
2019-01-21T10:02:34.862Z,1.50
2019-01-21T10:08:02.934Z,1.33
2019-01-21T10:13:29.307Z,1.60
2019-01-21T10:18:45.983Z,1.57
2019-01-21T10:24:02.198Z,1.90
2019-01-21T10:29:20.492Z,1.83
2019-01-21T10:34:46.122Z,1.97
2019-01-21T10:40:02.812Z,2.07
2019-01-21T10:45:23.177Z,1.50
2019-01-21T10:50:46.366Z,1.60
2019-01-21T10:56:02.835Z,1.80
2019-01-21T11:01:24.243Z,1.63
2019-01-21T11:06:45.011Z,1.10
2019-01-21T11:12:11.771Z,1.43
2019-01-21T11:17:28.186Z,1.30
2019-01-21T11:22:37.887Z,2.17
2019-01-21T11:27:53.377Z,1.47
2019-01-21T11:33:22.389Z,0.97
2019-01-21T11:38:38.277Z,1.80
2019-01-21T11:43:55.126Z,1.80
2019-01-21T11:49:13.196Z,2.03
2019-01-21T11:54:31.436Z,2.20
2019-01-21T11:59:44.177Z,1.30
2019-01-21T12:04:56.413Z,1.17
2019-01-21T12:10:28.952Z,1.70
2019-01-21T12:15:49.534Z,1.10
2019-01-21T12:21:10.270Z,1.10
2019-01-21T12:26:25.878Z,1.07
2019-01-21T12:31:43.165Z,0.90
2019-01-21T12:36:58.778Z,0.60
2019-01-21T12:42:14.821Z,1.00
2019-01-21T12:47:34.136Z,2.50
2019-01-21T12:52:51.291Z,0.97
2019-01-21T12:58:14.122Z,1.00
2019-01-21T13:03:32.206Z,0.80
2019-01-21T13:08:47.416Z,0.80
2019-01-21T13:13:59.165Z,0.97
2019-01-21T13:19:24.877Z,1.30
2019-01-21T13:24:40.075Z,1.10
2019-01-21T13:30:08.151Z,1.00
2019-01-21T13:35:36.183Z,0.80
2019-01-21T13:41:01.037Z,0.70
2019-01-21T13:46:31.417Z,0.90
2019-01-21T13:51:49.266Z,0.90
2019-01-21T13:57:09.358Z,0.70
2019-01-21T14:02:21.023Z,0.60
2019-01-21T14:07:42.221Z,0.73
2019-01-21T14:13:04.454Z,1.27
2019-01-21T14:18:26.374Z,0.50
2019-01-21T14:23:35.910Z,1.10
2019-01-21T14:28:56.738Z,0.97
2019-01-21T14:34:08.166Z,0.53
2019-01-21T14:39:19.615Z,0.60
2019-01-21T14:44:57.697Z,1.00
2019-01-21T14:50:11.798Z,1.10
2019-01-21T14:55:27.259Z,0.90
2019-01-21T15:00:46.431Z,0.80
2019-01-21T15:06:01.946Z,0.90
2019-01-21T15:11:26.037Z,0.90
2019-01-21T15:16:44.016Z,1.77
2019-01-21T15:22:09.628Z,1.47
2019-01-21T15:27:27.343Z,1.53
2019-01-21T15:32:46.517Z,1.30
2019-01-21T15:37:59.852Z,1.03
2019-01-21T15:43:33.609Z,0.57
2019-01-21T15:48:53.710Z,1.10
2019-01-21T15:54:01.164Z,0.50
2019-01-21T15:59:23.016Z,0.67
2019-01-21T16:04:39.362Z,0.70
2019-01-21T16:09:53.669Z,0.43
2019-01-21T16:15:05.719Z,0.60
2019-01-21T16:20:14.991Z,1.20
2019-01-21T16:25:32.819Z,0.70
2019-01-21T16:30:43.410Z,1.77
2019-01-21T16:36:09.093Z,0.50
2019-01-21T16:41:26.806Z,0.60
2019-01-21T16:46:29.452Z,0.60
2019-01-21T16:51:32.232Z,0.93
2019-01-21T16:56:34.967Z,0.70
2019-01-21T17:01:37.898Z,1.00
2019-01-21T17:06:40.580Z,0.47
2019-01-21T17:11:43.323Z,0.60
2019-01-21T17:16:45.952Z,0.50
2019-01-21T17:21:48.721Z,0.90
2019-01-21T17:26:51.453Z,1.10
2019-01-21T17:31:54.266Z,0.80
2019-01-21T17:36:57.186Z,0.60
2019-01-21T17:42:00.015Z,0.70
2019-01-21T17:47:02.552Z,0.50
2019-01-21T17:52:05.391Z,0.33
2019-01-21T17:57:07.926Z,0.20
2019-01-21T18:02:10.627Z,0.30
2019-01-21T18:07:13.491Z,0.10
2019-01-21T18:12:16.110Z,0.50
2019-01-21T18:17:18.963Z,0.20
2019-01-21T18:22:21.731Z,0.37
2019-01-21T18:27:24.646Z,0.20
2019-01-21T18:32:27.352Z,0.30
2019-01-21T18:37:30.091Z,0.57
2019-01-21T18:42:32.691Z,0.60
2019-01-21T18:47:35.250Z,0.37
2019-01-21T18:52:37.995Z,0.50
2019-01-21T18:57:40.618Z,0.40
2019-01-21T19:02:43.413Z,0.30
2019-01-21T19:07:46.038Z,0.47
2019-01-21T19:12:49.119Z,0.27
2019-01-21T19:17:52.992Z,0.70
2019-01-21T19:22:55.543Z,0.50
2019-01-21T19:27:58.085Z,1.07
2019-01-21T19:33:00.714Z,0.40
2019-01-21T19:38:04.618Z,1.20
2019-01-21T19:43:07.303Z,0.40
2019-01-21T19:48:09.873Z,0.57
2019-01-21T19:53:12.410Z,0.70
2019-01-21T19:58:15.159Z,1.40
2019-01-21T20:03:17.719Z,0.47
2019-01-21T20:08:21.493Z,0.40
2019-01-21T20:13:24.006Z,0.70
2019-01-21T20:18:26.569Z,1.07
2019-01-21T20:23:29.158Z,0.77
2019-01-21T20:28:31.634Z,0.87
2019-01-21T20:33:34.119Z,0.77
2019-01-21T20:38:36.744Z,0.70
2019-01-21T20:43:39.404Z,0.97
2019-01-21T20:48:41.921Z,0.80
2019-01-21T20:53:44.528Z,0.60
2019-01-21T20:58:47.458Z,0.50
2019-01-21T21:03:50.024Z,0.70
2019-01-21T21:08:52.662Z,1.00
2019-01-21T21:13:55.292Z,1.30
2019-01-21T21:18:57.729Z,1.60
2019-01-21T21:24:00.204Z,1.17
2019-01-21T21:29:02.779Z,1.30
2019-01-21T21:34:05.353Z,2.00
2019-01-21T21:39:08.058Z,2.50
2019-01-21T21:44:10.531Z,2.33
2019-01-21T21:49:13.074Z,2.80
2019-01-21T21:54:15.693Z,3.60
2019-01-21T21:59:18.338Z,3.27
2019-01-21T22:04:20.823Z,3.40
2019-01-21T22:09:23.394Z,3.80
2019-01-21T22:14:25.888Z,4.37
2019-01-21T22:19:28.365Z,4.53
2019-01-21T22:24:31.251Z,3.73
2019-01-21T22:29:33.858Z,3.70
2019-01-21T22:34:36.348Z,4.30
2019-01-21T22:39:38.993Z,3.00
2019-01-21T22:44:41.593Z,3.70
2019-01-21T22:49:44.239Z,3.40
2019-01-21T22:54:46.822Z,4.17
2019-01-21T22:59:49.329Z,3.23
2019-01-21T23:04:52.042Z,3.53
2019-01-21T23:09:54.589Z,2.83
2019-01-21T23:14:57.223Z,3.10
2019-01-21T23:20:00.069Z,3.67
2019-01-21T23:25:03.033Z,3.23
2019-01-21T23:30:08.008Z,3.73
2019-01-21T23:35:10.804Z,4.03
2019-01-21T23:40:13.858Z,3.70
2019-01-21T23:45:16.530Z,3.40
2019-01-21T23:50:19.229Z,1.83
2019-01-21T23:55:21.748Z,2.30
